createdAt,value
2023-04-12T00:01:38.625Z,6.43
2023-04-12T00:04:42.470Z,6.33
2023-04-12T00:07:47.133Z,6.17
2023-04-12T00:10:50.230Z,5.20
2023-04-12T00:13:55.001Z,6.07
2023-04-12T00:16:58.254Z,6.50
2023-04-12T00:20:01.351Z,5.67
2023-04-12T00:23:04.503Z,6.70
2023-04-12T00:26:08.179Z,6.10
2023-04-12T00:29:12.771Z,5.70
2023-04-12T00:32:15.963Z,5.57
2023-04-12T00:35:19.344Z,5.73
2023-04-12T00:38:22.498Z,5.50
2023-04-12T00:41:27.323Z,5.97
2023-04-12T00:44:32.932Z,5.83
2023-04-12T00:47:37.918Z,5.60
2023-04-12T00:50:44.704Z,5.60
2023-04-12T00:53:47.933Z,6.20
2023-04-12T00:56:51.084Z,5.57
2023-04-12T00:59:55.704Z,5.63
2023-04-12T01:03:02.534Z,6.17
2023-04-12T01:06:15.104Z,5.77
2023-04-12T01:09:30.366Z,6.30
2023-04-12T01:12:48.006Z,5.60
2023-04-12T01:15:59.987Z,5.40
2023-04-12T01:19:12.277Z,5.30
2023-04-12T01:22:38.623Z,5.70
2023-04-12T01:25:53.925Z,6.27
2023-04-12T01:28:59.304Z,5.80
2023-04-12T01:32:04.981Z,5.17
2023-04-12T01:35:09.194Z,5.73
2023-04-12T01:38:12.527Z,5.50
2023-04-12T01:41:16.423Z,6.07
2023-04-12T01:44:21.339Z,5.50
2023-04-12T01:47:24.481Z,5.60
2023-04-12T01:50:37.061Z,5.30
2023-04-12T01:53:50.063Z,5.40
2023-04-12T01:56:58.103Z,5.53
2023-04-12T02:00:06.666Z,5.37
2023-04-12T02:03:12.502Z,5.90
2023-04-12T02:06:15.845Z,6.30
2023-04-12T02:09:19.045Z,5.97
2023-04-12T02:12:23.910Z,6.57
2023-04-12T02:15:28.985Z,6.57
2023-04-12T02:18:32.233Z,6.70
2023-04-12T02:21:41.337Z,6.97
2023-04-12T02:24:44.477Z,7.10
2023-04-12T02:27:48.744Z,8.27
2023-04-12T02:30:54.174Z,8.73
2023-04-12T02:33:57.527Z,8.23
2023-04-12T02:37:00.979Z,9.67
2023-04-12T02:40:06.144Z,9.30
2023-04-12T02:43:09.484Z,8.90
2023-04-12T02:46:17.993Z,9.30
2023-04-12T02:49:21.129Z,9.60
2023-04-12T02:52:24.478Z,8.37
2023-04-12T02:55:27.494Z,8.87
2023-04-12T02:58:30.608Z,8.87
2023-04-12T03:01:35.208Z,8.60
2023-04-12T03:04:40.119Z,8.30
2023-04-12T03:07:43.633Z,7.73
2023-04-12T03:10:46.714Z,8.07
2023-04-12T03:13:49.770Z,7.83
2023-04-12T03:16:54.152Z,10.33
2023-04-12T03:19:58.140Z,15.43
2023-04-12T03:23:01.668Z,19.43
2023-04-12T03:26:04.868Z,17.40
2023-04-12T03:29:10.108Z,16.40
2023-04-12T03:32:15.902Z,13.90
2023-04-12T03:35:19.168Z,14.03
2023-04-12T03:38:23.500Z,13.97
2023-04-12T03:41:26.891Z,13.20
2023-04-12T03:44:29.964Z,13.43
2023-04-12T03:47:34.471Z,13.80
2023-04-12T03:50:44.805Z,14.90
2023-04-12T03:53:47.886Z,13.80
2023-04-12T03:56:50.927Z,13.03
2023-04-12T03:59:54.043Z,13.53
2023-04-12T04:02:58.768Z,15.10
2023-04-12T04:06:02.143Z,13.77
2023-04-12T04:09:05.721Z,13.13
2023-04-12T04:12:09.037Z,12.17
2023-04-12T04:15:12.935Z,12.60
2023-04-12T04:18:17.361Z,12.17
2023-04-12T04:21:22.443Z,11.67
2023-04-12T04:24:26.181Z,11.60
2023-04-12T04:27:30.780Z,10.90
2023-04-12T04:30:34.471Z,10.60
2023-04-12T04:33:39.495Z,10.53
2023-04-12T04:36:42.767Z,10.47
2023-04-12T04:39:45.793Z,10.50
2023-04-12T04:42:54.549Z,9.47
2023-04-12T04:45:58.428Z,9.67
2023-04-12T04:49:02.856Z,8.73
2023-04-12T04:52:07.309Z,9.60
2023-04-12T04:55:11.716Z,8.97
2023-04-12T04:58:14.950Z,8.63
2023-04-12T05:01:18.094Z,9.60
2023-04-12T05:04:22.668Z,8.93
2023-04-12T05:07:26.259Z,8.80
2023-04-12T05:10:29.333Z,8.53
2023-04-12T05:13:32.411Z,8.50
2023-04-12T05:16:35.575Z,9.47
2023-04-12T05:19:40.630Z,8.20
2023-04-12T05:22:44.312Z,8.10
2023-04-12T05:25:48.430Z,7.53
2023-04-12T05:28:51.616Z,8.20
2023-04-12T05:31:54.634Z,8.30
2023-04-12T05:34:59.032Z,8.03
2023-04-12T05:38:02.049Z,8.50
2023-04-12T05:41:05.832Z,7.47
2023-04-12T05:44:08.871Z,7.03
2023-04-12T05:47:12.257Z,7.17
2023-04-12T05:50:16.964Z,7.20
2023-04-12T05:53:20.020Z,7.47
2023-04-12T05:56:23.019Z,7.37
2023-04-12T05:59:26.052Z,7.50
2023-04-12T06:02:29.264Z,7.50
2023-04-12T06:05:35.350Z,7.57
2023-04-12T06:08:39.543Z,6.60
2023-04-12T06:11:42.609Z,7.17
2023-04-12T06:14:45.602Z,7.10
2023-04-12T06:17:48.804Z,6.10
2023-04-12T06:20:53.349Z,7.10
2023-04-12T06:23:56.429Z,6.47
2023-04-12T06:26:59.500Z,6.30
2023-04-12T06:30:02.613Z,6.80
2023-04-12T06:33:05.722Z,6.90
2023-04-12T06:36:11.556Z,6.23
2023-04-12T06:39:16.427Z,6.00
2023-04-12T06:42:19.690Z,6.07
2023-04-12T06:45:22.970Z,7.03
2023-04-12T06:48:26.269Z,6.07
2023-04-12T06:51:31.029Z,5.80
2023-04-12T06:54:34.491Z,5.63
2023-04-12T06:57:37.671Z,5.60
2023-04-12T07:00:41.015Z,6.30
2023-04-12T07:03:44.109Z,5.53
2023-04-12T07:06:48.558Z,5.40
2023-04-12T07:09:52.361Z,6.17
2023-04-12T07:12:55.459Z,5.83
2023-04-12T07:16:00.850Z,5.73
2023-04-12T07:19:03.914Z,5.50
2023-04-12T07:22:08.613Z,4.87
2023-04-12T07:25:11.838Z,5.63
2023-04-12T07:28:14.878Z,5.73
2023-04-12T07:31:17.944Z,5.33
2023-04-12T07:34:21.355Z,5.00
2023-04-12T07:37:26.183Z,5.13
2023-04-12T07:40:29.533Z,5.10
2023-04-12T07:43:32.851Z,4.57
2023-04-12T07:46:36.091Z,5.10
2023-04-12T07:49:39.396Z,4.70
2023-04-12T07:52:43.834Z,4.67
2023-04-12T07:55:47.198Z,4.77
2023-04-12T07:58:50.268Z,5.00
2023-04-12T08:01:53.347Z,4.40
2023-04-12T08:04:56.437Z,5.27
2023-04-12T08:08:00.894Z,4.50
2023-04-12T08:11:06.257Z,4.63
2023-04-12T08:14:10.495Z,4.67
2023-04-12T08:17:13.639Z,4.23
2023-04-12T08:20:16.754Z,4.13
2023-04-12T08:23:21.435Z,4.27
2023-04-12T08:26:26.634Z,4.00
2023-04-12T08:29:29.724Z,4.40
2023-04-12T08:32:32.921Z,4.60
2023-04-12T08:35:36.052Z,4.27
2023-04-12T08:38:45.733Z,3.43
2023-04-12T08:41:50.642Z,4.30
2023-04-12T08:44:53.924Z,3.90
2023-04-12T08:47:57.730Z,3.70
2023-04-12T08:51:02.112Z,4.00
2023-04-12T08:54:08.043Z,3.93
2023-04-12T08:57:11.318Z,4.00
2023-04-12T09:00:16.944Z,3.50
2023-04-12T09:03:20.144Z,4.13
2023-04-12T09:06:23.321Z,3.80
2023-04-12T09:09:46.058Z,3.30
2023-04-12T09:12:50.977Z,3.73
2023-04-12T09:15:55.549Z,3.30
2023-04-12T09:19:02.569Z,4.07
2023-04-12T09:22:05.810Z,3.40
2023-04-12T09:25:10.769Z,3.70
2023-04-12T09:28:26.091Z,3.13
2023-04-12T09:31:29.392Z,3.90
2023-04-12T09:34:33.094Z,3.20
2023-04-12T09:37:36.225Z,3.90
2023-04-12T09:40:41.223Z,3.23
2023-04-12T09:43:44.706Z,3.50
2023-04-12T09:46:53.157Z,3.30
2023-04-12T09:49:56.506Z,3.40
2023-04-12T09:53:00.726Z,3.00
2023-04-12T09:56:07.188Z,3.27
2023-04-12T09:59:10.405Z,2.80
2023-04-12T10:02:18.687Z,2.73
2023-04-12T10:05:23.448Z,3.20
2023-04-12T10:08:27.611Z,3.30
2023-04-12T10:11:34.004Z,3.00
2023-04-12T10:14:37.445Z,2.80
2023-04-12T10:17:43.293Z,3.10
2023-04-12T10:20:47.575Z,2.80
2023-04-12T10:23:50.984Z,2.70
2023-04-12T10:26:58.739Z,2.87
2023-04-12T10:30:23.738Z,2.90
2023-04-12T10:33:28.387Z,2.27
2023-04-12T10:36:53.531Z,3.07
2023-04-12T10:39:56.911Z,2.50
2023-04-12T10:43:28.970Z,2.73
2023-04-12T10:46:53.746Z,2.57
2023-04-12T10:50:24.572Z,2.80
2023-04-12T10:53:27.811Z,2.50
2023-04-12T10:56:41.153Z,2.50
2023-04-12T10:59:57.140Z,2.60
2023-04-12T11:03:12.858Z,2.60
2023-04-12T11:06:27.254Z,2.37
2023-04-12T11:09:41.256Z,2.63
2023-04-12T11:12:51.119Z,2.27
2023-04-12T11:15:57.723Z,2.53
2023-04-12T11:19:01.777Z,2.30
2023-04-12T11:22:05.729Z,2.20
2023-04-12T11:25:09.578Z,2.80
2023-04-12T11:28:27.771Z,1.90
2023-04-12T11:31:34.354Z,2.20
2023-04-12T11:34:38.243Z,2.43
2023-04-12T11:37:41.614Z,2.83
2023-04-12T11:40:44.752Z,2.33
2023-04-12T11:43:49.198Z,2.20
2023-04-12T11:46:53.701Z,2.47
2023-04-12T11:49:57.996Z,2.03
2023-04-12T11:53:13.612Z,2.03
2023-04-12T11:56:16.735Z,2.10
2023-04-12T11:59:19.720Z,2.43
2023-04-12T12:02:25.423Z,2.03
2023-04-12T12:05:29.926Z,2.30
2023-04-12T12:08:33.628Z,2.30
2023-04-12T12:11:36.812Z,2.10
2023-04-12T12:14:40.183Z,2.40
2023-04-12T12:17:44.622Z,2.33
2023-04-12T12:20:51.020Z,2.23
2023-04-12T12:23:54.627Z,2.30
2023-04-12T12:26:59.030Z,2.07
2023-04-12T12:30:04.481Z,2.30
2023-04-12T12:33:09.043Z,2.30
2023-04-12T12:36:12.345Z,2.50
2023-04-12T12:39:15.611Z,1.77
2023-04-12T12:42:18.659Z,2.10
2023-04-12T12:45:23.428Z,2.23
2023-04-12T12:48:28.267Z,2.00
2023-04-12T12:51:31.679Z,2.63
2023-04-12T12:54:40.189Z,1.60
2023-04-12T12:57:51.936Z,2.03
2023-04-12T13:01:05.793Z,1.80
2023-04-12T13:04:10.588Z,2.10
2023-04-12T13:07:13.712Z,1.73
2023-04-12T13:10:16.829Z,2.40
2023-04-12T13:13:20.226Z,1.90
2023-04-12T13:16:25.414Z,1.73
2023-04-12T13:19:31.389Z,1.70
2023-04-12T13:22:34.595Z,1.77
2023-04-12T13:25:37.795Z,1.83
2023-04-12T13:28:41.159Z,1.60
2023-04-12T13:31:44.435Z,1.90
2023-04-12T13:34:49.207Z,1.80
2023-04-12T13:37:52.267Z,1.70
2023-04-12T13:40:56.501Z,1.70
2023-04-12T13:43:59.509Z,1.50
2023-04-12T13:47:02.507Z,1.70
2023-04-12T13:50:08.342Z,1.60
2023-04-12T13:53:11.390Z,1.50
2023-04-12T13:56:16.047Z,1.60
2023-04-12T13:59:19.141Z,1.63
2023-04-12T14:02:22.314Z,1.70
2023-04-12T14:05:26.942Z,1.50
2023-04-12T14:08:30.334Z,1.50
2023-04-12T14:11:47.174Z,1.90
2023-04-12T14:14:50.480Z,1.73
2023-04-12T14:17:53.626Z,1.80
2023-04-12T14:20:59.391Z,1.50
2023-04-12T14:24:02.394Z,1.67
2023-04-12T14:27:05.645Z,3.73
2023-04-12T14:30:12.398Z,2.03
2023-04-12T14:33:15.565Z,3.47
2023-04-12T14:36:20.120Z,3.57
2023-04-12T14:39:24.266Z,5.47
2023-04-12T14:42:27.358Z,2.23
2023-04-12T14:45:30.495Z,1.87
2023-04-12T14:48:33.587Z,4.27
2023-04-12T14:51:37.996Z,5.07
2023-04-12T14:54:41.463Z,4.47
2023-04-12T14:57:44.752Z,6.57
2023-04-12T15:00:49.295Z,4.20
2023-04-12T15:03:55.156Z,5.43
2023-04-12T15:07:00.199Z,5.93
2023-04-12T15:10:04.977Z,3.00
2023-04-12T15:13:08.060Z,4.60
2023-04-12T15:16:12.553Z,5.67
2023-04-12T15:19:21.223Z,2.63
2023-04-12T15:22:27.823Z,5.60
2023-04-12T15:25:31.187Z,4.87
2023-04-12T15:28:34.449Z,6.63
2023-04-12T15:31:37.621Z,7.47
2023-04-12T15:34:40.681Z,4.80
2023-04-12T15:37:45.369Z,7.70
2023-04-12T15:40:54.740Z,9.20
2023-04-12T15:43:58.006Z,5.10
2023-04-12T15:47:10.822Z,4.97
2023-04-12T15:50:14.318Z,4.27
2023-04-12T15:53:21.351Z,4.73
2023-04-12T15:56:25.632Z,7.53
2023-04-12T15:59:30.049Z,4.50
2023-04-12T16:02:34.003Z,3.70
2023-04-12T16:05:37.316Z,3.27
2023-04-12T16:08:41.976Z,4.90
2023-04-12T16:11:46.611Z,2.50
2023-04-12T16:14:51.359Z,2.70
2023-04-12T16:17:56.279Z,2.93
2023-04-12T16:20:59.918Z,5.10
2023-04-12T16:24:04.910Z,2.83
2023-04-12T16:27:08.432Z,2.17
2023-04-12T16:30:12.901Z,1.93
2023-04-12T16:33:15.897Z,1.80
2023-04-12T16:36:19.607Z,1.73
2023-04-12T16:39:24.032Z,1.83
2023-04-12T16:42:31.831Z,2.40
2023-04-12T16:45:35.004Z,2.37
2023-04-12T16:48:41.230Z,2.40
2023-04-12T16:51:44.351Z,2.10
2023-04-12T16:54:48.746Z,3.50
2023-04-12T16:57:53.830Z,2.30
2023-04-12T17:00:57.954Z,4.60
2023-04-12T17:04:01.509Z,2.40
2023-04-12T17:07:05.276Z,3.10
2023-04-12T17:10:10.883Z,2.90
2023-04-12T17:13:19.437Z,3.07
2023-04-12T17:16:23.526Z,1.90
2023-04-12T17:19:27.177Z,2.53
2023-04-12T17:22:30.234Z,2.00
2023-04-12T17:25:35.115Z,1.80
2023-04-12T17:28:39.751Z,2.50
2023-04-12T17:31:42.861Z,2.60
2023-04-12T17:34:45.945Z,2.80
2023-04-12T17:37:49.231Z,1.80
2023-04-12T17:40:54.133Z,2.23
2023-04-12T17:43:57.711Z,2.20
2023-04-12T17:47:00.832Z,2.50
2023-04-12T17:50:03.878Z,2.30
2023-04-12T17:53:06.904Z,2.30
2023-04-12T17:56:11.363Z,1.90
2023-04-12T17:59:14.580Z,2.73
2023-04-12T18:02:18.109Z,3.17
2023-04-12T18:05:21.380Z,1.80
2023-04-12T18:08:25.151Z,2.53
2023-04-12T18:11:29.868Z,2.50
2023-04-12T18:14:32.836Z,2.00
2023-04-12T18:17:35.952Z,1.77
2023-04-12T18:20:38.986Z,1.97
2023-04-12T18:23:42.067Z,2.10
2023-04-12T18:26:47.161Z,2.90
2023-04-12T18:29:50.244Z,2.60
2023-04-12T18:32:53.425Z,2.07
2023-04-12T18:35:56.584Z,2.67
2023-04-12T18:38:59.787Z,2.60
2023-04-12T18:42:04.254Z,2.73
2023-04-12T18:45:08.948Z,2.87
2023-04-12T18:48:12.259Z,2.70
2023-04-12T18:51:15.644Z,3.03
2023-04-12T18:54:18.716Z,3.50
2023-04-12T18:57:23.198Z,3.23
2023-04-12T19:00:26.506Z,3.40
2023-04-12T19:03:29.581Z,3.50
2023-04-12T19:06:33.128Z,3.10
2023-04-12T19:09:36.141Z,3.57
2023-04-12T19:12:40.676Z,3.37
2023-04-12T19:15:43.901Z,3.23
2023-04-12T19:18:47.007Z,4.00
2023-04-12T19:21:50.111Z,2.87
2023-04-12T19:24:53.874Z,3.40
2023-04-12T19:27:59.868Z,2.87
2023-04-12T19:31:06.031Z,3.60
2023-04-12T19:34:11.751Z,3.07
2023-04-12T19:37:14.726Z,3.00
2023-04-12T19:40:17.775Z,2.90
2023-04-12T19:43:22.183Z,3.67
2023-04-12T19:46:25.267Z,3.30
2023-04-12T19:49:28.856Z,4.07
2023-04-12T19:52:31.924Z,3.17
2023-04-12T19:55:35.293Z,3.90
2023-04-12T19:58:40.942Z,3.90
2023-04-12T20:01:48.892Z,3.97
2023-04-12T20:04:52.480Z,3.10
2023-04-12T20:07:56.217Z,3.57
2023-04-12T20:10:59.440Z,3.53
2023-04-12T20:14:03.893Z,4.07
2023-04-12T20:17:07.135Z,4.37
2023-04-12T20:20:12.808Z,3.37
2023-04-12T20:23:16.172Z,5.03
2023-04-12T20:26:20.261Z,6.87
2023-04-12T20:29:24.723Z,4.10
2023-04-12T20:32:27.748Z,4.13
2023-04-12T20:35:31.012Z,5.60
2023-04-12T20:38:36.018Z,4.80
2023-04-12T20:41:39.264Z,5.07
2023-04-12T20:44:43.716Z,5.20
2023-04-12T20:47:46.710Z,5.20
2023-04-12T20:50:50.548Z,4.80
2023-04-12T20:53:53.627Z,5.70
2023-04-12T20:56:56.792Z,5.97
2023-04-12T21:00:01.528Z,6.07
2023-04-12T21:03:05.190Z,5.30
2023-04-12T21:06:11.003Z,5.80
2023-04-12T21:09:14.743Z,5.73
2023-04-12T21:12:18.259Z,6.33
2023-04-12T21:15:22.912Z,6.40
2023-04-12T21:18:26.030Z,5.43
2023-04-12T21:21:29.244Z,6.20
2023-04-12T21:24:37.656Z,5.93
2023-04-12T21:27:42.703Z,6.23
2023-04-12T21:30:49.346Z,5.80
2023-04-12T21:33:53.353Z,7.20
2023-04-12T21:36:57.424Z,5.10
2023-04-12T21:40:00.431Z,5.93
2023-04-12T21:43:03.555Z,6.40
2023-04-12T21:46:09.165Z,6.47
2023-04-12T21:49:12.353Z,6.10
2023-04-12T21:52:15.613Z,5.83
2023-04-12T21:55:19.112Z,6.80
2023-04-12T21:58:22.256Z,6.20
2023-04-12T22:01:27.309Z,5.33
2023-04-12T22:04:30.373Z,6.03
2023-04-12T22:07:33.720Z,7.03
2023-04-12T22:10:36.930Z,6.83
2023-04-12T22:13:41.805Z,7.10
2023-04-12T22:16:46.802Z,7.47
2023-04-12T22:19:50.213Z,8.20
2023-04-12T22:22:53.227Z,7.93
2023-04-12T22:25:58.516Z,8.67
2023-04-12T22:29:01.639Z,8.97
2023-04-12T22:32:06.510Z,9.00
2023-04-12T22:35:10.525Z,9.80
2023-04-12T22:38:14.844Z,9.67
2023-04-12T22:41:18.004Z,9.50
2023-04-12T22:44:22.192Z,10.30
2023-04-12T22:47:26.923Z,9.80
2023-04-12T22:50:30.052Z,11.10
2023-04-12T22:53:34.396Z,10.27
2023-04-12T22:56:42.146Z,10.40
2023-04-12T22:59:45.121Z,12.07
2023-04-12T23:02:50.430Z,11.70
2023-04-12T23:05:53.608Z,10.30
2023-04-12T23:09:00.169Z,9.60
2023-04-12T23:12:04.315Z,11.87
2023-04-12T23:15:09.032Z,11.17
2023-04-12T23:18:13.511Z,10.97
2023-04-12T23:21:16.557Z,11.10
2023-04-12T23:24:19.596Z,10.43
2023-04-12T23:27:22.812Z,10.17
2023-04-12T23:30:29.692Z,9.93
2023-04-12T23:33:34.477Z,10.40
2023-04-12T23:36:37.623Z,10.50
2023-04-12T23:39:40.623Z,11.27
2023-04-12T23:42:44.835Z,9.77
2023-04-12T23:45:48.036Z,10.83
2023-04-12T23:48:52.826Z,11.00
2023-04-12T23:51:55.877Z,10.17
2023-04-12T23:54:58.958Z,9.63
2023-04-12T23:58:01.938Z,10.30
